sensor_id;sensor_type;location;lat;lon;timestamp;P1;durP1;ratioP1;P2;durP2;ratioP2
25279;SDS011;13225;47.804;12.116;2022-11-20T00:00:57;4.32;;;3.15;;
25279;SDS011;13225;47.804;12.116;2022-11-20T00:03:28;3.63;;;2.97;;
25279;SDS011;13225;47.804;12.116;2022-11-20T00:05:54;7.28;;;4.40;;
25279;SDS011;13225;47.804;12.116;2022-11-20T00:08:25;7.60;;;4.95;;
25279;SDS011;13225;47.804;12.116;2022-11-20T00:10:50;9.65;;;5.20;;
25279;SDS011;13225;47.804;12.116;2022-11-20T00:13:16;7.30;;;5.00;;
25279;SDS011;13225;47.804;12.116;2022-11-20T00:15:42;11.50;;;5.03;;
25279;SDS011;13225;47.804;12.116;2022-11-20T00:18:07;8.07;;;4.90;;
25279;SDS011;13225;47.804;12.116;2022-11-20T00:20:33;6.40;;;4.35;;
25279;SDS011;13225;47.804;12.116;2022-11-20T00:22:58;6.72;;;4.50;;
25279;SDS011;13225;47.804;12.116;2022-11-20T00:25:25;7.28;;;4.47;;
25279;SDS011;13225;47.804;12.116;2022-11-20T00:27:50;6.88;;;4.38;;
25279;SDS011;13225;47.804;12.116;2022-11-20T00:30:16;9.57;;;4.60;;
25279;SDS011;13225;47.804;12.116;2022-11-20T00:32:42;6.80;;;4.15;;
25279;SDS011;13225;47.804;12.116;2022-11-20T00:35:07;6.13;;;4.13;;
25279;SDS011;13225;47.804;12.116;2022-11-20T00:37:36;6.18;;;2.90;;
25279;SDS011;13225;47.804;12.116;2022-11-20T00:40:03;6.60;;;3.78;;
25279;SDS011;13225;47.804;12.116;2022-11-20T00:42:29;5.70;;;3.67;;
25279;SDS011;13225;47.804;12.116;2022-11-20T00:44:55;6.60;;;3.70;;
25279;SDS011;13225;47.804;12.116;2022-11-20T00:47:21;5.75;;;3.40;;
25279;SDS011;13225;47.804;12.116;2022-11-20T00:49:46;5.72;;;3.22;;
25279;SDS011;13225;47.804;12.116;2022-11-20T00:52:12;6.75;;;3.03;;
25279;SDS011;13225;47.804;12.116;2022-11-20T00:54:38;5.60;;;3.08;;
25279;SDS011;13225;47.804;12.116;2022-11-20T00:57:03;3.15;;;1.70;;
25279;SDS011;13225;47.804;12.116;2022-11-20T00:59:29;3.70;;;1.70;;
25279;SDS011;13225;47.804;12.116;2022-11-20T01:01:54;2.40;;;1.65;;
25279;SDS011;13225;47.804;12.116;2022-11-20T01:04:20;2.67;;;1.30;;
25279;SDS011;13225;47.804;12.116;2022-11-20T01:06:46;3.15;;;1.40;;
25279;SDS011;13225;47.804;12.116;2022-11-20T01:09:12;1.98;;;1.20;;
25279;SDS011;13225;47.804;12.116;2022-11-20T01:11:40;1.33;;;1.10;;
25279;SDS011;13225;47.804;12.116;2022-11-20T01:14:09;3.13;;;1.08;;
25279;SDS011;13225;47.804;12.116;2022-11-20T01:16:45;1.85;;;1.13;;
25279;SDS011;13225;47.804;12.116;2022-11-20T01:19:17;1.45;;;1.25;;
25279;SDS011;13225;47.804;12.116;2022-11-20T01:21:50;1.40;;;1.00;;
25279;SDS011;13225;47.804;12.116;2022-11-20T01:24:17;1.77;;;1.10;;
25279;SDS011;13225;47.804;12.116;2022-11-20T01:26:44;1.13;;;1.00;;
25279;SDS011;13225;47.804;12.116;2022-11-20T01:29:16;1.38;;;1.27;;
25279;SDS011;13225;47.804;12.116;2022-11-20T01:31:44;1.63;;;0.88;;
25279;SDS011;13225;47.804;12.116;2022-11-20T01:34:11;1.60;;;1.10;;
25279;SDS011;13225;47.804;12.116;2022-11-20T01:36:38;1.42;;;1.33;;
25279;SDS011;13225;47.804;12.116;2022-11-20T01:39:10;2.42;;;1.20;;
25279;SDS011;13225;47.804;12.116;2022-11-20T01:41:42;1.30;;;1.20;;
25279;SDS011;13225;47.804;12.116;2022-11-20T01:47:34;1.98;;;1.30;;
25279;SDS011;13225;47.804;12.116;2022-11-20T01:50:13;1.85;;;1.15;;
25279;SDS011;13225;47.804;12.116;2022-11-20T01:52:49;1.20;;;1.10;;
25279;SDS011;13225;47.804;12.116;2022-11-20T01:55:21;1.83;;;1.23;;
25279;SDS011;13225;47.804;12.116;2022-11-20T01:57:50;1.73;;;1.30;;
25279;SDS011;13225;47.804;12.116;2022-11-20T02:00:17;1.85;;;1.30;;
25279;SDS011;13225;47.804;12.116;2022-11-20T02:02:45;3.20;;;1.60;;
25279;SDS011;13225;47.804;12.116;2022-11-20T02:08:04;1.73;;;1.38;;
25279;SDS011;13225;47.804;12.116;2022-11-20T02:10:31;2.35;;;1.45;;
25279;SDS011;13225;47.804;12.116;2022-11-20T02:12:58;1.92;;;1.38;;
25279;SDS011;13225;47.804;12.116;2022-11-20T02:15:42;1.80;;;1.50;;
25279;SDS011;13225;47.804;12.116;2022-11-20T02:18:09;1.67;;;1.30;;
25279;SDS011;13225;47.804;12.116;2022-11-20T02:20:36;2.08;;;1.50;;
25279;SDS011;13225;47.804;12.116;2022-11-20T02:25:54;1.58;;;1.30;;
25279;SDS011;13225;47.804;12.116;2022-11-20T02:28:20;1.67;;;1.58;;
25279;SDS011;13225;47.804;12.116;2022-11-20T02:30:46;2.50;;;1.30;;
25279;SDS011;13225;47.804;12.116;2022-11-20T02:33:12;2.83;;;1.60;;
25279;SDS011;13225;47.804;12.116;2022-11-20T02:35:42;1.92;;;1.70;;
25279;SDS011;13225;47.804;12.116;2022-11-20T02:38:09;2.10;;;1.50;;
25279;SDS011;13225;47.804;12.116;2022-11-20T02:40:35;1.92;;;1.42;;
25279;SDS011;13225;47.804;12.116;2022-11-20T02:43:01;1.70;;;1.55;;
25279;SDS011;13225;47.804;12.116;2022-11-20T02:45:26;1.58;;;1.48;;
25279;SDS011;13225;47.804;12.116;2022-11-20T02:47:52;1.65;;;1.50;;
25279;SDS011;13225;47.804;12.116;2022-11-20T02:50:18;2.33;;;1.40;;
25279;SDS011;13225;47.804;12.116;2022-11-20T02:52:44;1.60;;;1.50;;
25279;SDS011;13225;47.804;12.116;2022-11-20T02:57:38;2.03;;;1.27;;
25279;SDS011;13225;47.804;12.116;2022-11-20T03:00:04;1.55;;;1.45;;
25279;SDS011;13225;47.804;12.116;2022-11-20T03:02:31;2.08;;;1.67;;
25279;SDS011;13225;47.804;12.116;2022-11-20T03:04:59;1.52;;;1.42;;
25279;SDS011;13225;47.804;12.116;2022-11-20T03:07:25;1.85;;;1.38;;
25279;SDS011;13225;47.804;12.116;2022-11-20T03:09:51;2.65;;;1.45;;
25279;SDS011;13225;47.804;12.116;2022-11-20T03:12:16;1.50;;;1.40;;
25279;SDS011;13225;47.804;12.116;2022-11-20T03:14:42;2.05;;;1.55;;
25279;SDS011;13225;47.804;12.116;2022-11-20T03:17:08;1.50;;;1.40;;
25279;SDS011;13225;47.804;12.116;2022-11-20T03:19:34;1.50;;;1.40;;
25279;SDS011;13225;47.804;12.116;2022-11-20T03:21:59;2.17;;;1.60;;
25279;SDS011;13225;47.804;12.116;2022-11-20T03:24:25;2.13;;;1.65;;
25279;SDS011;13225;47.804;12.116;2022-11-20T03:26:51;2.13;;;1.45;;
25279;SDS011;13225;47.804;12.116;2022-11-20T03:29:17;2.45;;;1.70;;
25279;SDS011;13225;47.804;12.116;2022-11-20T03:31:42;2.42;;;1.80;;
25279;SDS011;13225;47.804;12.116;2022-11-20T03:34:09;1.95;;;1.73;;
25279;SDS011;13225;47.804;12.116;2022-11-20T03:36:37;1.95;;;1.70;;
25279;SDS011;13225;47.804;12.116;2022-11-20T03:39:04;3.42;;;1.60;;
25279;SDS011;13225;47.804;12.116;2022-11-20T03:41:30;1.98;;;1.83;;
25279;SDS011;13225;47.804;12.116;2022-11-20T03:43:58;3.25;;;2.00;;
25279;SDS011;13225;47.804;12.116;2022-11-20T03:46:24;3.65;;;1.80;;
25279;SDS011;13225;47.804;12.116;2022-11-20T03:48:52;3.78;;;2.00;;
25279;SDS011;13225;47.804;12.116;2022-11-20T03:51:28;3.78;;;1.75;;
25279;SDS011;13225;47.804;12.116;2022-11-20T03:53:56;2.20;;;1.80;;
25279;SDS011;13225;47.804;12.116;2022-11-20T03:56:24;2.35;;;1.90;;
25279;SDS011;13225;47.804;12.116;2022-11-20T03:58:51;3.90;;;1.90;;
25279;SDS011;13225;47.804;12.116;2022-11-20T04:01:18;2.40;;;2.10;;
25279;SDS011;13225;47.804;12.116;2022-11-20T04:03:48;2.53;;;2.10;;
25279;SDS011;13225;47.804;12.116;2022-11-20T04:06:17;3.20;;;2.25;;
25279;SDS011;13225;47.804;12.116;2022-11-20T04:08:44;3.78;;;2.10;;
25279;SDS011;13225;47.804;12.116;2022-11-20T04:11:14;3.88;;;2.15;;
25279;SDS011;13225;47.804;12.116;2022-11-20T04:13:42;2.63;;;2.10;;
25279;SDS011;13225;47.804;12.116;2022-11-20T04:16:11;2.38;;;2.13;;
25279;SDS011;13225;47.804;12.116;2022-11-20T04:18:37;2.78;;;2.22;;
25279;SDS011;13225;47.804;12.116;2022-11-20T04:21:03;2.25;;;2.03;;
25279;SDS011;13225;47.804;12.116;2022-11-20T04:23:30;4.15;;;2.30;;
25279;SDS011;13225;47.804;12.116;2022-11-20T04:26:06;4.03;;;2.65;;
25279;SDS011;13225;47.804;12.116;2022-11-20T04:28:34;2.75;;;2.38;;
25279;SDS011;13225;47.804;12.116;2022-11-20T04:31:13;4.45;;;2.40;;
25279;SDS011;13225;47.804;12.116;2022-11-20T04:33:40;2.28;;;2.08;;
25279;SDS011;13225;47.804;12.116;2022-11-20T04:36:16;2.55;;;2.25;;
25279;SDS011;13225;47.804;12.116;2022-11-20T04:38:44;5.35;;;2.70;;
25279;SDS011;13225;47.804;12.116;2022-11-20T04:41:13;3.10;;;2.60;;
25279;SDS011;13225;47.804;12.116;2022-11-20T04:43:41;3.38;;;2.38;;
25279;SDS011;13225;47.804;12.116;2022-11-20T04:46:06;5.18;;;2.55;;
25279;SDS011;13225;47.804;12.116;2022-11-20T04:48:32;3.65;;;2.42;;
25279;SDS011;13225;47.804;12.116;2022-11-20T04:51:02;3.90;;;2.38;;
25279;SDS011;13225;47.804;12.116;2022-11-20T04:53:28;2.58;;;2.10;;
25279;SDS011;13225;47.804;12.116;2022-11-20T04:56:05;3.33;;;2.40;;
25279;SDS011;13225;47.804;12.116;2022-11-20T04:58:32;2.67;;;2.03;;
25279;SDS011;13225;47.804;12.116;2022-11-20T05:01:02;2.50;;;2.30;;
25279;SDS011;13225;47.804;12.116;2022-11-20T05:03:32;2.80;;;2.00;;
25279;SDS011;13225;47.804;12.116;2022-11-20T05:06:02;2.78;;;2.58;;
25279;SDS011;13225;47.804;12.116;2022-11-20T05:08:29;3.08;;;2.40;;
25279;SDS011;13225;47.804;12.116;2022-11-20T05:10:59;2.42;;;2.22;;
25279;SDS011;13225;47.804;12.116;2022-11-20T05:13:48;5.97;;;2.57;;
25279;SDS011;13225;47.804;12.116;2022-11-20T05:16:17;3.40;;;2.28;;
25279;SDS011;13225;47.804;12.116;2022-11-20T05:18:44;3.90;;;2.67;;
25279;SDS011;13225;47.804;12.116;2022-11-20T05:21:11;3.72;;;2.35;;
25279;SDS011;13225;47.804;12.116;2022-11-20T05:23:38;4.85;;;2.25;;
25279;SDS011;13225;47.804;12.116;2022-11-20T05:26:05;4.38;;;2.60;;
25279;SDS011;13225;47.804;12.116;2022-11-20T05:28:33;3.55;;;2.67;;
25279;SDS011;13225;47.804;12.116;2022-11-20T05:31:06;2.88;;;2.55;;
25279;SDS011;13225;47.804;12.116;2022-11-20T05:33:33;3.58;;;2.78;;
25279;SDS011;13225;47.804;12.116;2022-11-20T05:36:00;4.18;;;2.83;;
25279;SDS011;13225;47.804;12.116;2022-11-20T05:38:26;3.22;;;2.45;;
25279;SDS011;13225;47.804;12.116;2022-11-20T05:40:52;3.58;;;2.53;;
25279;SDS011;13225;47.804;12.116;2022-11-20T05:45:55;4.60;;;2.45;;
25279;SDS011;13225;47.804;12.116;2022-11-20T05:48:21;3.53;;;2.38;;
25279;SDS011;13225;47.804;12.116;2022-11-20T05:50:47;4.63;;;2.58;;
25279;SDS011;13225;47.804;12.116;2022-11-20T05:53:13;3.95;;;2.60;;
25279;SDS011;13225;47.804;12.116;2022-11-20T05:55:38;3.83;;;2.70;;
25279;SDS011;13225;47.804;12.116;2022-11-20T05:58:04;2.58;;;2.38;;
25279;SDS011;13225;47.804;12.116;2022-11-20T06:00:30;4.28;;;2.72;;
25279;SDS011;13225;47.804;12.116;2022-11-20T06:02:55;4.82;;;2.67;;
25279;SDS011;13225;47.804;12.116;2022-11-20T06:05:21;4.93;;;2.38;;
25279;SDS011;13225;47.804;12.116;2022-11-20T06:07:47;2.90;;;2.40;;
25279;SDS011;13225;47.804;12.116;2022-11-20T06:10:13;3.42;;;2.60;;
25279;SDS011;13225;47.804;12.116;2022-11-20T06:12:38;3.47;;;2.65;;
25279;SDS011;13225;47.804;12.116;2022-11-20T06:15:04;2.95;;;2.40;;
25279;SDS011;13225;47.804;12.116;2022-11-20T06:17:30;4.85;;;2.47;;
25279;SDS011;13225;47.804;12.116;2022-11-20T06:19:56;3.38;;;2.58;;
25279;SDS011;13225;47.804;12.116;2022-11-20T06:22:21;2.50;;;2.30;;
25279;SDS011;13225;47.804;12.116;2022-11-20T06:24:47;3.45;;;2.60;;
25279;SDS011;13225;47.804;12.116;2022-11-20T06:27:13;3.42;;;2.83;;
25279;SDS011;13225;47.804;12.116;2022-11-20T06:29:38;4.55;;;2.75;;
25279;SDS011;13225;47.804;12.116;2022-11-20T06:32:04;5.00;;;2.67;;
25279;SDS011;13225;47.804;12.116;2022-11-20T06:34:29;3.92;;;2.50;;
25279;SDS011;13225;47.804;12.116;2022-11-20T06:36:55;2.60;;;2.40;;
25279;SDS011;13225;47.804;12.116;2022-11-20T06:39:20;3.30;;;2.92;;
25279;SDS011;13225;47.804;12.116;2022-11-20T06:41:46;3.13;;;2.80;;
25279;SDS011;13225;47.804;12.116;2022-11-20T06:44:11;6.85;;;3.60;;
25279;SDS011;13225;47.804;12.116;2022-11-20T06:46:37;5.18;;;3.60;;
25279;SDS011;13225;47.804;12.116;2022-11-20T06:49:02;4.80;;;3.60;;
25279;SDS011;13225;47.804;12.116;2022-11-20T06:51:28;6.55;;;3.70;;
25279;SDS011;13225;47.804;12.116;2022-11-20T06:53:59;3.88;;;3.20;;
25279;SDS011;13225;47.804;12.116;2022-11-20T06:56:26;5.43;;;3.53;;
25279;SDS011;13225;47.804;12.116;2022-11-20T06:58:51;6.55;;;3.38;;
25279;SDS011;13225;47.804;12.116;2022-11-20T07:01:17;3.90;;;3.03;;
25279;SDS011;13225;47.804;12.116;2022-11-20T07:03:43;5.53;;;2.83;;
25279;SDS011;13225;47.804;12.116;2022-11-20T07:06:08;6.00;;;2.88;;
25279;SDS011;13225;47.804;12.116;2022-11-20T07:08:34;4.00;;;2.95;;
25279;SDS011;13225;47.804;12.116;2022-11-20T07:11:00;3.97;;;2.75;;
25279;SDS011;13225;47.804;12.116;2022-11-20T07:13:30;6.72;;;3.42;;
25279;SDS011;13225;47.804;12.116;2022-11-20T07:16:03;4.63;;;2.88;;
25279;SDS011;13225;47.804;12.116;2022-11-20T07:18:31;3.25;;;2.40;;
25279;SDS011;13225;47.804;12.116;2022-11-20T07:21:01;3.92;;;2.30;;
25279;SDS011;13225;47.804;12.116;2022-11-20T07:23:27;2.92;;;2.63;;
25279;SDS011;13225;47.804;12.116;2022-11-20T07:25:53;3.70;;;2.20;;
25279;SDS011;13225;47.804;12.116;2022-11-20T07:28:22;2.30;;;2.10;;
25279;SDS011;13225;47.804;12.116;2022-11-20T07:30:51;2.30;;;2.10;;
25279;SDS011;13225;47.804;12.116;2022-11-20T07:33:18;2.88;;;2.30;;
25279;SDS011;13225;47.804;12.116;2022-11-20T07:35:43;2.47;;;2.20;;
25279;SDS011;13225;47.804;12.116;2022-11-20T07:38:10;4.05;;;2.10;;
25279;SDS011;13225;47.804;12.116;2022-11-20T07:40:35;2.90;;;2.05;;
25279;SDS011;13225;47.804;12.116;2022-11-20T07:43:01;5.28;;;2.10;;
25279;SDS011;13225;47.804;12.116;2022-11-20T07:45:26;2.30;;;1.92;;
25279;SDS011;13225;47.804;12.116;2022-11-20T07:47:54;2.85;;;1.88;;
25279;SDS011;13225;47.804;12.116;2022-11-20T07:50:20;4.28;;;2.03;;
25279;SDS011;13225;47.804;12.116;2022-11-20T07:52:49;2.95;;;2.20;;
25279;SDS011;13225;47.804;12.116;2022-11-20T07:55:15;3.05;;;1.90;;
25279;SDS011;13225;47.804;12.116;2022-11-20T07:57:41;2.33;;;1.80;;
25279;SDS011;13225;47.804;12.116;2022-11-20T08:00:08;3.28;;;2.10;;
25279;SDS011;13225;47.804;12.116;2022-11-20T08:02:38;3.35;;;2.00;;
25279;SDS011;13225;47.804;12.116;2022-11-20T08:05:05;2.50;;;1.90;;
25279;SDS011;13225;47.804;12.116;2022-11-20T08:07:38;2.58;;;2.00;;
25279;SDS011;13225;47.804;12.116;2022-11-20T08:10:05;2.10;;;1.80;;
25279;SDS011;13225;47.804;12.116;2022-11-20T08:12:32;3.00;;;1.80;;
25279;SDS011;13225;47.804;12.116;2022-11-20T08:15:16;4.47;;;2.30;;
25279;SDS011;13225;47.804;12.116;2022-11-20T08:17:42;4.97;;;2.28;;
25279;SDS011;13225;47.804;12.116;2022-11-20T08:20:08;5.07;;;3.10;;
25279;SDS011;13225;47.804;12.116;2022-11-20T08:22:36;5.80;;;3.15;;
25279;SDS011;13225;47.804;12.116;2022-11-20T08:25:02;11.43;;;5.28;;
25279;SDS011;13225;47.804;12.116;2022-11-20T08:27:28;7.07;;;4.30;;
25279;SDS011;13225;47.804;12.116;2022-11-20T08:29:53;4.55;;;3.10;;
25279;SDS011;13225;47.804;12.116;2022-11-20T08:32:19;3.33;;;2.50;;
25279;SDS011;13225;47.804;12.116;2022-11-20T08:34:44;1.90;;;1.70;;
25279;SDS011;13225;47.804;12.116;2022-11-20T08:37:11;2.08;;;1.73;;
25279;SDS011;13225;47.804;12.116;2022-11-20T08:39:36;2.67;;;1.55;;
25279;SDS011;13225;47.804;12.116;2022-11-20T08:42:06;1.98;;;1.60;;
25279;SDS011;13225;47.804;12.116;2022-11-20T08:44:35;1.95;;;1.63;;
25279;SDS011;13225;47.804;12.116;2022-11-20T08:47:00;3.13;;;1.33;;
25279;SDS011;13225;47.804;12.116;2022-11-20T08:49:26;2.60;;;1.60;;
25279;SDS011;13225;47.804;12.116;2022-11-20T08:51:51;1.27;;;1.00;;
25279;SDS011;13225;47.804;12.116;2022-11-20T08:54:19;2.78;;;1.00;;
25279;SDS011;13225;47.804;12.116;2022-11-20T08:56:46;3.40;;;1.75;;
25279;SDS011;13225;47.804;12.116;2022-11-20T08:59:12;1.02;;;0.98;;
25279;SDS011;13225;47.804;12.116;2022-11-20T09:01:38;1.25;;;1.00;;
25279;SDS011;13225;47.804;12.116;2022-11-20T09:04:04;0.50;;;0.50;;
25279;SDS011;13225;47.804;12.116;2022-11-20T09:06:30;2.92;;;1.20;;
25279;SDS011;13225;47.804;12.116;2022-11-20T09:08:56;1.38;;;0.63;;
25279;SDS011;13225;47.804;12.116;2022-11-20T09:11:22;0.60;;;0.50;;
25279;SDS011;13225;47.804;12.116;2022-11-20T09:13:48;0.80;;;0.60;;
25279;SDS011;13225;47.804;12.116;2022-11-20T09:16:14;2.63;;;1.30;;
25279;SDS011;13225;47.804;12.116;2022-11-20T09:18:40;3.97;;;1.67;;
25279;SDS011;13225;47.804;12.116;2022-11-20T09:21:06;4.13;;;1.63;;
25279;SDS011;13225;47.804;12.116;2022-11-20T09:23:36;4.13;;;1.98;;
25279;SDS011;13225;47.804;12.116;2022-11-20T09:26:06;1.58;;;0.57;;
25279;SDS011;13225;47.804;12.116;2022-11-20T09:28:36;0.70;;;0.50;;
25279;SDS011;13225;47.804;12.116;2022-11-20T09:31:06;0.88;;;0.50;;
25279;SDS011;13225;47.804;12.116;2022-11-20T09:33:33;0.55;;;0.40;;
25279;SDS011;13225;47.804;12.116;2022-11-20T09:35:58;0.60;;;0.50;;
25279;SDS011;13225;47.804;12.116;2022-11-20T09:38:24;0.40;;;0.40;;
25279;SDS011;13225;47.804;12.116;2022-11-20T09:40:57;1.65;;;0.45;;
25279;SDS011;13225;47.804;12.116;2022-11-20T09:48:37;0.73;;;0.40;;
25279;SDS011;13225;47.804;12.116;2022-11-20T09:51:23;0.30;;;0.30;;
25279;SDS011;13225;47.804;12.116;2022-11-20T09:54:22;0.57;;;0.57;;
25279;SDS011;13225;47.804;12.116;2022-11-20T09:56:56;0.20;;;0.20;;
25279;SDS011;13225;47.804;12.116;2022-11-20T10:02:00;0.40;;;0.40;;
25279;SDS011;13225;47.804;12.116;2022-11-20T10:04:31;0.95;;;0.38;;
25279;SDS011;13225;47.804;12.116;2022-11-20T10:07:03;0.22;;;0.22;;
25279;SDS011;13225;47.804;12.116;2022-11-20T10:09:37;0.40;;;0.40;;
25279;SDS011;13225;47.804;12.116;2022-11-20T10:14:46;1.20;;;0.80;;
25279;SDS011;13225;47.804;12.116;2022-11-20T10:18:03;1.95;;;0.90;;
25279;SDS011;13225;47.804;12.116;2022-11-20T10:23:40;0.98;;;0.98;;
25279;SDS011;13225;47.804;12.116;2022-11-20T10:26:26;1.07;;;0.73;;
25279;SDS011;13225;47.804;12.116;2022-11-20T10:32:09;1.33;;;1.10;;
25279;SDS011;13225;47.804;12.116;2022-11-20T10:37:33;0.43;;;0.43;;
25279;SDS011;13225;47.804;12.116;2022-11-20T10:40:16;0.40;;;0.40;;
25279;SDS011;13225;47.804;12.116;2022-11-20T10:47:53;0.47;;;0.47;;
25279;SDS011;13225;47.804;12.116;2022-11-20T10:50:21;2.23;;;0.50;;
25279;SDS011;13225;47.804;12.116;2022-11-20T11:00:50;0.20;;;0.20;;
25279;SDS011;13225;47.804;12.116;2022-11-20T11:03:26;0.30;;;0.30;;
25279;SDS011;13225;47.804;12.116;2022-11-20T11:05:54;0.82;;;0.43;;
25279;SDS011;13225;47.804;12.116;2022-11-20T11:08:44;1.75;;;0.57;;
25279;SDS011;13225;47.804;12.116;2022-11-20T11:13:47;0.65;;;0.50;;
25279;SDS011;13225;47.804;12.116;2022-11-20T11:16:23;0.40;;;0.40;;
25279;SDS011;13225;47.804;12.116;2022-11-20T11:18:51;0.30;;;0.28;;
25279;SDS011;13225;47.804;12.116;2022-11-20T11:21:27;0.90;;;0.40;;
25279;SDS011;13225;47.804;12.116;2022-11-20T11:23:57;0.30;;;0.30;;
25279;SDS011;13225;47.804;12.116;2022-11-20T11:26:28;0.30;;;0.30;;
25279;SDS011;13225;47.804;12.116;2022-11-20T11:31:30;0.43;;;0.32;;
25279;SDS011;13225;47.804;12.116;2022-11-20T11:34:07;0.40;;;0.20;;
25279;SDS011;13225;47.804;12.116;2022-11-20T11:36:36;0.20;;;0.20;;
25279;SDS011;13225;47.804;12.116;2022-11-20T11:39:03;0.45;;;0.40;;
25279;SDS011;13225;47.804;12.116;2022-11-20T11:41:33;0.25;;;0.25;;
25279;SDS011;13225;47.804;12.116;2022-11-20T11:44:14;0.17;;;0.17;;
25279;SDS011;13225;47.804;12.116;2022-11-20T11:47:04;0.37;;;0.20;;
25279;SDS011;13225;47.804;12.116;2022-11-20T11:49:35;0.25;;;0.20;;
25279;SDS011;13225;47.804;12.116;2022-11-20T12:05:13;0.30;;;0.30;;
25279;SDS011;13225;47.804;12.116;2022-11-20T12:07:47;0.25;;;0.25;;
25279;SDS011;13225;47.804;12.116;2022-11-20T12:10:21;0.28;;;0.20;;
25279;SDS011;13225;47.804;12.116;2022-11-20T12:13:04;0.20;;;0.20;;
25279;SDS011;13225;47.804;12.116;2022-11-20T12:15:55;0.38;;;0.38;;
25279;SDS011;13225;47.804;12.116;2022-11-20T12:18:21;0.45;;;0.45;;
25279;SDS011;13225;47.804;12.116;2022-11-20T12:20:57;0.30;;;0.30;;
25279;SDS011;13225;47.804;12.116;2022-11-20T12:29:48;0.60;;;0.57;;
25279;SDS011;13225;47.804;12.116;2022-11-20T12:32:44;0.88;;;0.40;;
25279;SDS011;13225;47.804;12.116;2022-11-20T12:43:56;1.17;;;0.30;;
25279;SDS011;13225;47.804;12.116;2022-11-20T12:47:09;0.40;;;0.40;;
25279;SDS011;13225;47.804;12.116;2022-11-20T12:55:59;0.57;;;0.30;;
25279;SDS011;13225;47.804;12.116;2022-11-20T12:59:21;0.30;;;0.30;;
25279;SDS011;13225;47.804;12.116;2022-11-20T13:01:50;0.22;;;0.22;;
25279;SDS011;13225;47.804;12.116;2022-11-20T13:07:02;1.10;;;0.40;;
25279;SDS011;13225;47.804;12.116;2022-11-20T13:09:33;0.27;;;0.27;;
25279;SDS011;13225;47.804;12.116;2022-11-20T13:12:05;0.45;;;0.32;;
25279;SDS011;13225;47.804;12.116;2022-11-20T13:14:40;0.55;;;0.40;;
25279;SDS011;13225;47.804;12.116;2022-11-20T13:17:22;0.43;;;0.43;;
25279;SDS011;13225;47.804;12.116;2022-11-20T13:19:56;0.63;;;0.60;;
25279;SDS011;13225;47.804;12.116;2022-11-20T13:22:42;1.65;;;0.50;;
25279;SDS011;13225;47.804;12.116;2022-11-20T13:25:31;0.40;;;0.40;;
25279;SDS011;13225;47.804;12.116;2022-11-20T13:30:48;0.40;;;0.40;;
25279;SDS011;13225;47.804;12.116;2022-11-20T13:33:22;0.60;;;0.50;;
25279;SDS011;13225;47.804;12.116;2022-11-20T13:36:06;0.40;;;0.30;;
25279;SDS011;13225;47.804;12.116;2022-11-20T13:41:22;0.30;;;0.20;;
25279;SDS011;13225;47.804;12.116;2022-11-20T13:44:13;0.20;;;0.20;;
25279;SDS011;13225;47.804;12.116;2022-11-20T13:46:46;0.25;;;0.25;;
25279;SDS011;13225;47.804;12.116;2022-11-20T13:54:54;0.22;;;0.22;;
25279;SDS011;13225;47.804;12.116;2022-11-20T14:00:14;0.32;;;0.30;;
25279;SDS011;13225;47.804;12.116;2022-11-20T14:02:52;0.98;;;0.40;;
25279;SDS011;13225;47.804;12.116;2022-11-20T14:05:36;1.00;;;0.60;;
25279;SDS011;13225;47.804;12.116;2022-11-20T14:08:05;0.98;;;0.60;;
25279;SDS011;13225;47.804;12.116;2022-11-20T14:10:37;1.88;;;1.00;;
25279;SDS011;13225;47.804;12.116;2022-11-20T14:13:37;1.30;;;0.95;;
25279;SDS011;13225;47.804;12.116;2022-11-20T14:15:56;2.15;;;1.13;;
25279;SDS011;13225;47.804;12.116;2022-11-20T14:18:25;1.92;;;1.20;;
25279;SDS011;13225;47.804;12.116;2022-11-20T14:20:54;0.98;;;0.90;;
25279;SDS011;13225;47.804;12.116;2022-11-20T14:23:28;1.67;;;1.10;;
25279;SDS011;13225;47.804;12.116;2022-11-20T14:25:55;1.10;;;0.90;;
25279;SDS011;13225;47.804;12.116;2022-11-20T14:28:25;2.33;;;1.00;;
25279;SDS011;13225;47.804;12.116;2022-11-20T14:30:52;1.27;;;0.80;;
25279;SDS011;13225;47.804;12.116;2022-11-20T14:33:21;2.33;;;1.00;;
25279;SDS011;13225;47.804;12.116;2022-11-20T14:35:56;2.33;;;1.00;;
25279;SDS011;13225;47.804;12.116;2022-11-20T14:38:29;1.15;;;0.88;;
25279;SDS011;13225;47.804;12.116;2022-11-20T14:41:07;2.17;;;1.20;;
25279;SDS011;13225;47.804;12.116;2022-11-20T14:43:34;1.30;;;1.08;;
25279;SDS011;13225;47.804;12.116;2022-11-20T14:46:03;1.95;;;1.10;;
25279;SDS011;13225;47.804;12.116;2022-11-20T14:48:36;1.25;;;0.95;;
25279;SDS011;13225;47.804;12.116;2022-11-20T14:51:05;0.75;;;0.75;;
25279;SDS011;13225;47.804;12.116;2022-11-20T14:53:37;0.98;;;0.95;;
25279;SDS011;13225;47.804;12.116;2022-11-20T14:56:02;1.75;;;1.02;;
25279;SDS011;13225;47.804;12.116;2022-11-20T14:58:32;1.20;;;1.10;;
25279;SDS011;13225;47.804;12.116;2022-11-20T15:01:00;1.73;;;1.30;;
25279;SDS011;13225;47.804;12.116;2022-11-20T15:03:32;2.92;;;1.52;;
25279;SDS011;13225;47.804;12.116;2022-11-20T15:05:59;1.70;;;1.40;;
25279;SDS011;13225;47.804;12.116;2022-11-20T15:08:25;3.13;;;1.52;;
25279;SDS011;13225;47.804;12.116;2022-11-20T15:10:51;2.78;;;1.40;;
25279;SDS011;13225;47.804;12.116;2022-11-20T15:13:36;1.40;;;1.30;;
25279;SDS011;13225;47.804;12.116;2022-11-20T15:16:04;10.30;;;6.88;;
25279;SDS011;13225;47.804;12.116;2022-11-20T15:18:40;10.50;;;7.60;;
25279;SDS011;13225;47.804;12.116;2022-11-20T15:21:10;10.18;;;8.10;;
25279;SDS011;13225;47.804;12.116;2022-11-20T15:23:38;6.43;;;5.53;;
25279;SDS011;13225;47.804;12.116;2022-11-20T15:26:04;5.00;;;3.45;;
25279;SDS011;13225;47.804;12.116;2022-11-20T15:28:34;3.03;;;1.77;;
25279;SDS011;13225;47.804;12.116;2022-11-20T15:31:02;4.90;;;3.60;;
25279;SDS011;13225;47.804;12.116;2022-11-20T15:33:29;5.32;;;2.97;;
25279;SDS011;13225;47.804;12.116;2022-11-20T15:35:55;8.55;;;3.50;;
25279;SDS011;13225;47.804;12.116;2022-11-20T15:38:23;47.25;;;11.32;;
25279;SDS011;13225;47.804;12.116;2022-11-20T15:40:49;20.05;;;6.38;;
25279;SDS011;13225;47.804;12.116;2022-11-20T15:43:15;19.75;;;5.47;;
25279;SDS011;13225;47.804;12.116;2022-11-20T15:48:28;4.57;;;2.25;;
25279;SDS011;13225;47.804;12.116;2022-11-20T15:53:24;32.47;;;11.55;;
25279;SDS011;13225;47.804;12.116;2022-11-20T15:55:49;23.50;;;9.43;;
25279;SDS011;13225;47.804;12.116;2022-11-20T15:58:15;25.77;;;12.55;;
25279;SDS011;13225;47.804;12.116;2022-11-20T16:00:42;18.13;;;8.88;;
25279;SDS011;13225;47.804;12.116;2022-11-20T16:03:14;15.40;;;7.30;;
25279;SDS011;13225;47.804;12.116;2022-11-20T16:05:40;13.00;;;8.32;;
25279;SDS011;13225;47.804;12.116;2022-11-20T16:08:06;15.20;;;7.40;;
25279;SDS011;13225;47.804;12.116;2022-11-20T16:10:31;9.15;;;6.55;;
25279;SDS011;13225;47.804;12.116;2022-11-20T16:12:57;10.63;;;6.25;;
25279;SDS011;13225;47.804;12.116;2022-11-20T16:15:41;8.90;;;5.38;;
25279;SDS011;13225;47.804;12.116;2022-11-20T16:18:13;10.00;;;5.25;;
25279;SDS011;13225;47.804;12.116;2022-11-20T16:20:43;7.30;;;4.53;;
25279;SDS011;13225;47.804;12.116;2022-11-20T16:23:19;11.73;;;6.82;;
25279;SDS011;13225;47.804;12.116;2022-11-20T16:25:46;11.23;;;6.60;;
25279;SDS011;13225;47.804;12.116;2022-11-20T16:28:12;12.80;;;7.70;;
25279;SDS011;13225;47.804;12.116;2022-11-20T16:30:39;17.85;;;8.82;;
25279;SDS011;13225;47.804;12.116;2022-11-20T16:33:04;13.68;;;9.23;;
25279;SDS011;13225;47.804;12.116;2022-11-20T16:35:36;15.27;;;9.55;;